sensor_id;sensor_type;location;lat;lon;timestamp;P1;durP1;ratioP1;P2;durP2;ratioP2
11125;SDS011;5617;54.046;10.676;2023-04-01T00:01:16;17.37;;;10.20;;
11125;SDS011;5617;54.046;10.676;2023-04-01T00:03:24;14.07;;;10.73;;
11125;SDS011;5617;54.046;10.676;2023-04-01T00:05:33;12.93;;;9.77;;
11125;SDS011;5617;54.046;10.676;2023-04-01T00:07:41;12.93;;;9.27;;
11125;SDS011;5617;54.046;10.676;2023-04-01T00:09:48;13.87;;;9.20;;
11125;SDS011;5617;54.046;10.676;2023-04-01T00:11:57;13.20;;;8.73;;
11125;SDS011;5617;54.046;10.676;2023-04-01T00:14:05;12.13;;;7.67;;
11125;SDS011;5617;54.046;10.676;2023-04-01T00:16:14;13.27;;;7.80;;
11125;SDS011;5617;54.046;10.676;2023-04-01T00:18:22;10.80;;;6.90;;
11125;SDS011;5617;54.046;10.676;2023-04-01T00:20:30;8.03;;;6.07;;
11125;SDS011;5617;54.046;10.676;2023-04-01T00:22:37;9.37;;;5.97;;
11125;SDS011;5617;54.046;10.676;2023-04-01T00:24:45;8.50;;;5.43;;
11125;SDS011;5617;54.046;10.676;2023-04-01T00:26:53;8.63;;;5.60;;
11125;SDS011;5617;54.046;10.676;2023-04-01T00:29:03;7.10;;;5.37;;
11125;SDS011;5617;54.046;10.676;2023-04-01T00:31:12;9.60;;;4.80;;
11125;SDS011;5617;54.046;10.676;2023-04-01T00:33:20;6.57;;;4.20;;
11125;SDS011;5617;54.046;10.676;2023-04-01T00:35:28;7.83;;;4.97;;
11125;SDS011;5617;54.046;10.676;2023-04-01T00:37:37;6.07;;;3.50;;
11125;SDS011;5617;54.046;10.676;2023-04-01T00:39:45;5.43;;;4.20;;
11125;SDS011;5617;54.046;10.676;2023-04-01T00:41:53;6.80;;;3.67;;
11125;SDS011;5617;54.046;10.676;2023-04-01T00:44:16;6.83;;;4.20;;
11125;SDS011;5617;54.046;10.676;2023-04-01T00:46:25;7.53;;;4.07;;
11125;SDS011;5617;54.046;10.676;2023-04-01T00:48:33;5.87;;;4.00;;
11125;SDS011;5617;54.046;10.676;2023-04-01T00:50:46;7.27;;;4.17;;
11125;SDS011;5617;54.046;10.676;2023-04-01T00:52:57;6.67;;;4.10;;
11125;SDS011;5617;54.046;10.676;2023-04-01T00:55:07;6.10;;;4.30;;
11125;SDS011;5617;54.046;10.676;2023-04-01T00:57:20;5.90;;;3.90;;
11125;SDS011;5617;54.046;10.676;2023-04-01T00:59:34;5.80;;;3.57;;
11125;SDS011;5617;54.046;10.676;2023-04-01T01:01:46;6.80;;;4.17;;
11125;SDS011;5617;54.046;10.676;2023-04-01T01:03:54;5.33;;;3.47;;
11125;SDS011;5617;54.046;10.676;2023-04-01T01:06:08;8.00;;;3.60;;
11125;SDS011;5617;54.046;10.676;2023-04-01T01:08:29;6.80;;;3.50;;
11125;SDS011;5617;54.046;10.676;2023-04-01T01:10:44;5.27;;;3.40;;
11125;SDS011;5617;54.046;10.676;2023-04-01T01:12:57;5.33;;;3.60;;
11125;SDS011;5617;54.046;10.676;2023-04-01T01:15:18;6.33;;;3.73;;
11125;SDS011;5617;54.046;10.676;2023-04-01T01:17:32;7.23;;;4.63;;
11125;SDS011;5617;54.046;10.676;2023-04-01T01:19:49;6.63;;;3.80;;
11125;SDS011;5617;54.046;10.676;2023-04-01T01:22:19;5.17;;;3.40;;
11125;SDS011;5617;54.046;10.676;2023-04-01T01:24:43;3.57;;;3.07;;
11125;SDS011;5617;54.046;10.676;2023-04-01T01:27:12;5.67;;;3.97;;
11125;SDS011;5617;54.046;10.676;2023-04-01T01:29:33;6.37;;;4.13;;
11125;SDS011;5617;54.046;10.676;2023-04-01T01:32:01;6.10;;;4.40;;
11125;SDS011;5617;54.046;10.676;2023-04-01T01:34:15;7.40;;;4.53;;
11125;SDS011;5617;54.046;10.676;2023-04-01T01:36:30;5.60;;;4.23;;
11125;SDS011;5617;54.046;10.676;2023-04-01T01:38:40;5.47;;;4.57;;
11125;SDS011;5617;54.046;10.676;2023-04-01T01:40:49;8.03;;;4.93;;
11125;SDS011;5617;54.046;10.676;2023-04-01T01:43:02;5.20;;;3.77;;
11125;SDS011;5617;54.046;10.676;2023-04-01T01:45:12;6.97;;;4.20;;
11125;SDS011;5617;54.046;10.676;2023-04-01T01:47:24;5.87;;;4.47;;
11125;SDS011;5617;54.046;10.676;2023-04-01T01:49:33;5.63;;;4.30;;
11125;SDS011;5617;54.046;10.676;2023-04-01T01:51:44;8.07;;;4.43;;
11125;SDS011;5617;54.046;10.676;2023-04-01T01:53:54;6.90;;;4.50;;
11125;SDS011;5617;54.046;10.676;2023-04-01T01:56:01;6.37;;;4.23;;
11125;SDS011;5617;54.046;10.676;2023-04-01T01:58:10;6.70;;;4.53;;
11125;SDS011;5617;54.046;10.676;2023-04-01T02:00:20;4.50;;;3.50;;
11125;SDS011;5617;54.046;10.676;2023-04-01T02:02:29;7.50;;;4.47;;
11125;SDS011;5617;54.046;10.676;2023-04-01T02:04:38;6.17;;;4.27;;
11125;SDS011;5617;54.046;10.676;2023-04-01T02:06:50;7.00;;;4.40;;
11125;SDS011;5617;54.046;10.676;2023-04-01T02:09:03;7.43;;;4.90;;
11125;SDS011;5617;54.046;10.676;2023-04-01T02:11:13;5.67;;;4.67;;
11125;SDS011;5617;54.046;10.676;2023-04-01T02:13:27;9.83;;;4.80;;
11125;SDS011;5617;54.046;10.676;2023-04-01T02:15:40;6.00;;;5.10;;
11125;SDS011;5617;54.046;10.676;2023-04-01T02:17:51;4.53;;;3.97;;
11125;SDS011;5617;54.046;10.676;2023-04-01T02:20:00;6.30;;;4.70;;
11125;SDS011;5617;54.046;10.676;2023-04-01T02:22:14;6.47;;;4.40;;
11125;SDS011;5617;54.046;10.676;2023-04-01T02:24:25;6.60;;;4.70;;
11125;SDS011;5617;54.046;10.676;2023-04-01T02:26:35;6.07;;;4.43;;
11125;SDS011;5617;54.046;10.676;2023-04-01T02:28:43;7.00;;;4.83;;
11125;SDS011;5617;54.046;10.676;2023-04-01T02:30:53;8.47;;;4.77;;
11125;SDS011;5617;54.046;10.676;2023-04-01T02:33:01;7.20;;;4.60;;
11125;SDS011;5617;54.046;10.676;2023-04-01T02:35:11;5.53;;;4.13;;
11125;SDS011;5617;54.046;10.676;2023-04-01T02:37:22;5.97;;;3.93;;
11125;SDS011;5617;54.046;10.676;2023-04-01T02:39:30;6.43;;;4.20;;
11125;SDS011;5617;54.046;10.676;2023-04-01T02:41:38;4.30;;;3.70;;
11125;SDS011;5617;54.046;10.676;2023-04-01T02:43:47;4.87;;;3.90;;
11125;SDS011;5617;54.046;10.676;2023-04-01T02:45:54;3.50;;;3.20;;
11125;SDS011;5617;54.046;10.676;2023-04-01T02:48:03;4.47;;;3.27;;
11125;SDS011;5617;54.046;10.676;2023-04-01T02:50:11;4.97;;;3.43;;
11125;SDS011;5617;54.046;10.676;2023-04-01T02:52:19;4.43;;;3.43;;
11125;SDS011;5617;54.046;10.676;2023-04-01T02:54:29;4.03;;;3.30;;
11125;SDS011;5617;54.046;10.676;2023-04-01T02:56:37;4.30;;;2.90;;
11125;SDS011;5617;54.046;10.676;2023-04-01T02:58:44;3.00;;;2.53;;
11125;SDS011;5617;54.046;10.676;2023-04-01T03:00:52;5.30;;;2.87;;
11125;SDS011;5617;54.046;10.676;2023-04-01T03:03:02;3.13;;;2.63;;
11125;SDS011;5617;54.046;10.676;2023-04-01T03:05:10;3.70;;;2.63;;
11125;SDS011;5617;54.046;10.676;2023-04-01T03:07:18;3.03;;;2.40;;
11125;SDS011;5617;54.046;10.676;2023-04-01T03:09:26;4.63;;;2.70;;
11125;SDS011;5617;54.046;10.676;2023-04-01T03:11:36;2.73;;;2.20;;
11125;SDS011;5617;54.046;10.676;2023-04-01T03:13:44;2.87;;;2.40;;
11125;SDS011;5617;54.046;10.676;2023-04-01T03:15:54;3.37;;;2.50;;
11125;SDS011;5617;54.046;10.676;2023-04-01T03:18:05;3.77;;;2.07;;
11125;SDS011;5617;54.046;10.676;2023-04-01T03:20:13;3.17;;;2.30;;
11125;SDS011;5617;54.046;10.676;2023-04-01T03:22:21;2.30;;;2.10;;
11125;SDS011;5617;54.046;10.676;2023-04-01T03:24:29;3.23;;;2.27;;
11125;SDS011;5617;54.046;10.676;2023-04-01T03:26:38;2.37;;;1.77;;
11125;SDS011;5617;54.046;10.676;2023-04-01T03:28:46;1.70;;;1.47;;
11125;SDS011;5617;54.046;10.676;2023-04-01T03:30:53;1.83;;;1.67;;
11125;SDS011;5617;54.046;10.676;2023-04-01T03:33:01;1.80;;;1.70;;
11125;SDS011;5617;54.046;10.676;2023-04-01T03:35:10;1.70;;;1.60;;
11125;SDS011;5617;54.046;10.676;2023-04-01T03:37:17;2.00;;;1.80;;
11125;SDS011;5617;54.046;10.676;2023-04-01T03:39:25;3.17;;;1.90;;
11125;SDS011;5617;54.046;10.676;2023-04-01T03:41:34;3.17;;;1.87;;
11125;SDS011;5617;54.046;10.676;2023-04-01T03:43:44;2.20;;;2.00;;
11125;SDS011;5617;54.046;10.676;2023-04-01T03:45:52;3.57;;;2.00;;
11125;SDS011;5617;54.046;10.676;2023-04-01T03:48:02;3.17;;;1.60;;
11125;SDS011;5617;54.046;10.676;2023-04-01T03:50:10;2.50;;;1.87;;
11125;SDS011;5617;54.046;10.676;2023-04-01T03:52:18;3.10;;;1.83;;
11125;SDS011;5617;54.046;10.676;2023-04-01T03:54:26;3.03;;;2.00;;
11125;SDS011;5617;54.046;10.676;2023-04-01T03:56:33;2.70;;;1.70;;
11125;SDS011;5617;54.046;10.676;2023-04-01T03:58:41;1.80;;;1.70;;
11125;SDS011;5617;54.046;10.676;2023-04-01T04:00:51;1.77;;;1.67;;
11125;SDS011;5617;54.046;10.676;2023-04-01T04:02:58;2.07;;;1.63;;
11125;SDS011;5617;54.046;10.676;2023-04-01T04:05:06;2.57;;;2.00;;
11125;SDS011;5617;54.046;10.676;2023-04-01T04:07:14;3.50;;;2.30;;
11125;SDS011;5617;54.046;10.676;2023-04-01T04:09:22;1.80;;;1.53;;
11125;SDS011;5617;54.046;10.676;2023-04-01T04:11:31;2.60;;;1.87;;
11125;SDS011;5617;54.046;10.676;2023-04-01T04:13:39;2.57;;;1.97;;
11125;SDS011;5617;54.046;10.676;2023-04-01T04:15:48;1.63;;;1.50;;
11125;SDS011;5617;54.046;10.676;2023-04-01T04:17:56;2.13;;;1.83;;
11125;SDS011;5617;54.046;10.676;2023-04-01T04:20:04;4.03;;;1.50;;
11125;SDS011;5617;54.046;10.676;2023-04-01T04:22:12;2.20;;;1.60;;
11125;SDS011;5617;54.046;10.676;2023-04-01T04:24:20;2.43;;;1.93;;
11125;SDS011;5617;54.046;10.676;2023-04-01T04:26:28;4.50;;;2.20;;
11125;SDS011;5617;54.046;10.676;2023-04-01T04:28:36;2.30;;;2.10;;
11125;SDS011;5617;54.046;10.676;2023-04-01T04:30:44;4.17;;;2.20;;
11125;SDS011;5617;54.046;10.676;2023-04-01T04:32:54;2.40;;;1.67;;
11125;SDS011;5617;54.046;10.676;2023-04-01T04:35:01;1.97;;;1.87;;
11125;SDS011;5617;54.046;10.676;2023-04-01T04:37:12;2.13;;;1.93;;
11125;SDS011;5617;54.046;10.676;2023-04-01T04:39:20;2.53;;;1.83;;
11125;SDS011;5617;54.046;10.676;2023-04-01T04:41:27;4.67;;;2.43;;
11125;SDS011;5617;54.046;10.676;2023-04-01T04:43:35;3.20;;;2.13;;
11125;SDS011;5617;54.046;10.676;2023-04-01T04:45:43;3.67;;;2.50;;
11125;SDS011;5617;54.046;10.676;2023-04-01T04:47:51;2.80;;;1.80;;
11125;SDS011;5617;54.046;10.676;2023-04-01T04:50:00;2.13;;;2.00;;
11125;SDS011;5617;54.046;10.676;2023-04-01T04:52:08;4.00;;;1.93;;
11125;SDS011;5617;54.046;10.676;2023-04-01T04:54:16;3.33;;;2.40;;
11125;SDS011;5617;54.046;10.676;2023-04-01T04:56:25;3.40;;;2.60;;
11125;SDS011;5617;54.046;10.676;2023-04-01T04:58:34;3.03;;;1.93;;
11125;SDS011;5617;54.046;10.676;2023-04-01T05:00:42;4.57;;;2.30;;
11125;SDS011;5617;54.046;10.676;2023-04-01T05:02:50;3.93;;;2.40;;
11125;SDS011;5617;54.046;10.676;2023-04-01T05:04:59;5.50;;;2.63;;
11125;SDS011;5617;54.046;10.676;2023-04-01T05:07:06;3.13;;;1.87;;
11125;SDS011;5617;54.046;10.676;2023-04-01T05:09:14;3.17;;;2.10;;
11125;SDS011;5617;54.046;10.676;2023-04-01T05:11:22;4.57;;;2.30;;
11125;SDS011;5617;54.046;10.676;2023-04-01T05:13:31;3.37;;;2.00;;
11125;SDS011;5617;54.046;10.676;2023-04-01T05:15:40;3.13;;;2.00;;
11125;SDS011;5617;54.046;10.676;2023-04-01T05:17:48;2.53;;;2.27;;
11125;SDS011;5617;54.046;10.676;2023-04-01T05:19:56;5.87;;;1.93;;
11125;SDS011;5617;54.046;10.676;2023-04-01T05:22:05;4.97;;;1.93;;
11125;SDS011;5617;54.046;10.676;2023-04-01T05:24:13;5.50;;;1.97;;
11125;SDS011;5617;54.046;10.676;2023-04-01T05:26:21;2.00;;;1.70;;
11125;SDS011;5617;54.046;10.676;2023-04-01T05:28:28;3.27;;;1.87;;
11125;SDS011;5617;54.046;10.676;2023-04-01T05:30:36;3.63;;;1.70;;
11125;SDS011;5617;54.046;10.676;2023-04-01T05:32:46;1.63;;;1.43;;
11125;SDS011;5617;54.046;10.676;2023-04-01T05:34:54;2.97;;;1.97;;
11125;SDS011;5617;54.046;10.676;2023-04-01T05:37:01;4.73;;;1.87;;
11125;SDS011;5617;54.046;10.676;2023-04-01T05:39:11;4.50;;;1.83;;
11125;SDS011;5617;54.046;10.676;2023-04-01T05:41:18;6.13;;;1.90;;
11125;SDS011;5617;54.046;10.676;2023-04-01T05:43:26;3.93;;;2.10;;
11125;SDS011;5617;54.046;10.676;2023-04-01T05:45:34;4.10;;;1.73;;
11125;SDS011;5617;54.046;10.676;2023-04-01T05:47:42;5.60;;;2.47;;
11125;SDS011;5617;54.046;10.676;2023-04-01T05:49:49;8.30;;;1.80;;
11125;SDS011;5617;54.046;10.676;2023-04-01T05:51:57;2.70;;;1.70;;
11125;SDS011;5617;54.046;10.676;2023-04-01T05:54:05;1.87;;;1.40;;
11125;SDS011;5617;54.046;10.676;2023-04-01T05:56:14;2.70;;;1.40;;
11125;SDS011;5617;54.046;10.676;2023-04-01T05:58:22;3.17;;;1.60;;
11125;SDS011;5617;54.046;10.676;2023-04-01T06:00:30;3.03;;;1.30;;
11125;SDS011;5617;54.046;10.676;2023-04-01T06:02:38;1.63;;;1.30;;
11125;SDS011;5617;54.046;10.676;2023-04-01T06:04:47;1.90;;;1.70;;
11125;SDS011;5617;54.046;10.676;2023-04-01T06:06:55;2.37;;;1.60;;
11125;SDS011;5617;54.046;10.676;2023-04-01T06:09:07;1.97;;;1.30;;
11125;SDS011;5617;54.046;10.676;2023-04-01T06:11:24;2.43;;;1.40;;
11125;SDS011;5617;54.046;10.676;2023-04-01T06:13:45;1.33;;;1.13;;
11125;SDS011;5617;54.046;10.676;2023-04-01T06:16:11;3.83;;;1.50;;
11125;SDS011;5617;54.046;10.676;2023-04-01T06:18:35;2.40;;;1.27;;
11125;SDS011;5617;54.046;10.676;2023-04-01T06:21:05;1.63;;;0.97;;
11125;SDS011;5617;54.046;10.676;2023-04-01T06:23:24;2.13;;;1.20;;
11125;SDS011;5617;54.046;10.676;2023-04-01T06:25:50;3.97;;;1.53;;
11125;SDS011;5617;54.046;10.676;2023-04-01T06:28:22;2.60;;;1.33;;
11125;SDS011;5617;54.046;10.676;2023-04-01T06:30:49;2.87;;;1.60;;
11125;SDS011;5617;54.046;10.676;2023-04-01T06:33:23;1.47;;;1.10;;
11125;SDS011;5617;54.046;10.676;2023-04-01T06:35:56;3.37;;;1.50;;
11125;SDS011;5617;54.046;10.676;2023-04-01T06:38:26;3.57;;;1.20;;
11125;SDS011;5617;54.046;10.676;2023-04-01T06:40:48;4.13;;;1.30;;
11125;SDS011;5617;54.046;10.676;2023-04-01T06:43:10;2.67;;;1.10;;
11125;SDS011;5617;54.046;10.676;2023-04-01T06:45:29;1.50;;;1.10;;
11125;SDS011;5617;54.046;10.676;2023-04-01T06:47:53;2.43;;;1.50;;
11125;SDS011;5617;54.046;10.676;2023-04-01T06:50:11;3.63;;;1.20;;
11125;SDS011;5617;54.046;10.676;2023-04-01T06:52:28;2.53;;;1.30;;
11125;SDS011;5617;54.046;10.676;2023-04-01T06:54:44;1.70;;;1.07;;
11125;SDS011;5617;54.046;10.676;2023-04-01T06:56:58;4.73;;;1.10;;
11125;SDS011;5617;54.046;10.676;2023-04-01T06:59:10;2.73;;;1.07;;
11125;SDS011;5617;54.046;10.676;2023-04-01T07:01:24;1.10;;;0.90;;
11125;SDS011;5617;54.046;10.676;2023-04-01T07:03:40;3.23;;;1.00;;
11125;SDS011;5617;54.046;10.676;2023-04-01T07:05:51;3.60;;;0.77;;
11125;SDS011;5617;54.046;10.676;2023-04-01T07:08:01;1.80;;;1.10;;
11125;SDS011;5617;54.046;10.676;2023-04-01T07:10:13;3.00;;;1.20;;
11125;SDS011;5617;54.046;10.676;2023-04-01T07:12:29;1.93;;;0.90;;
11125;SDS011;5617;54.046;10.676;2023-04-01T07:14:45;2.53;;;0.97;;
11125;SDS011;5617;54.046;10.676;2023-04-01T07:16:56;1.80;;;1.00;;
11125;SDS011;5617;54.046;10.676;2023-04-01T07:19:09;2.03;;;1.43;;
11125;SDS011;5617;54.046;10.676;2023-04-01T07:21:25;0.80;;;0.80;;
11125;SDS011;5617;54.046;10.676;2023-04-01T07:23:36;2.43;;;0.80;;
11125;SDS011;5617;54.046;10.676;2023-04-01T07:25:48;1.00;;;0.93;;
11125;SDS011;5617;54.046;10.676;2023-04-01T07:28:00;0.90;;;0.80;;
11125;SDS011;5617;54.046;10.676;2023-04-01T07:30:13;3.20;;;0.90;;
11125;SDS011;5617;54.046;10.676;2023-04-01T07:32:26;2.03;;;0.90;;
11125;SDS011;5617;54.046;10.676;2023-04-01T07:34:45;3.50;;;1.20;;
11125;SDS011;5617;54.046;10.676;2023-04-01T07:37:10;2.47;;;1.00;;
11125;SDS011;5617;54.046;10.676;2023-04-01T07:39:25;2.20;;;0.77;;
11125;SDS011;5617;54.046;10.676;2023-04-01T07:41:41;1.90;;;1.00;;
11125;SDS011;5617;54.046;10.676;2023-04-01T07:44:00;2.10;;;0.93;;
11125;SDS011;5617;54.046;10.676;2023-04-01T07:46:20;1.73;;;1.13;;
11125;SDS011;5617;54.046;10.676;2023-04-01T07:48:43;2.33;;;1.00;;
11125;SDS011;5617;54.046;10.676;2023-04-01T07:51:01;1.80;;;1.00;;
11125;SDS011;5617;54.046;10.676;2023-04-01T07:53:11;2.70;;;0.73;;
11125;SDS011;5617;54.046;10.676;2023-04-01T07:55:24;2.03;;;0.83;;
11125;SDS011;5617;54.046;10.676;2023-04-01T07:57:36;2.43;;;1.00;;
11125;SDS011;5617;54.046;10.676;2023-04-01T07:59:53;3.33;;;1.23;;
11125;SDS011;5617;54.046;10.676;2023-04-01T08:02:10;1.73;;;0.70;;
11125;SDS011;5617;54.046;10.676;2023-04-01T08:04:35;2.47;;;1.00;;
11125;SDS011;5617;54.046;10.676;2023-04-01T08:06:52;3.13;;;1.07;;
11125;SDS011;5617;54.046;10.676;2023-04-01T08:09:06;3.30;;;1.13;;
11125;SDS011;5617;54.046;10.676;2023-04-01T08:11:26;3.40;;;1.20;;
11125;SDS011;5617;54.046;10.676;2023-04-01T08:13:48;1.57;;;1.03;;
11125;SDS011;5617;54.046;10.676;2023-04-01T08:16:05;2.50;;;1.13;;
11125;SDS011;5617;54.046;10.676;2023-04-01T08:18:21;3.33;;;1.03;;
11125;SDS011;5617;54.046;10.676;2023-04-01T08:20:39;2.10;;;1.10;;
11125;SDS011;5617;54.046;10.676;2023-04-01T08:22:53;3.47;;;1.20;;
11125;SDS011;5617;54.046;10.676;2023-04-01T08:25:09;2.03;;;1.10;;
11125;SDS011;5617;54.046;10.676;2023-04-01T08:27:21;3.23;;;1.10;;
11125;SDS011;5617;54.046;10.676;2023-04-01T08:29:36;1.97;;;0.97;;
11125;SDS011;5617;54.046;10.676;2023-04-01T08:31:49;5.20;;;1.40;;
11125;SDS011;5617;54.046;10.676;2023-04-01T08:34:03;3.60;;;1.70;;
11125;SDS011;5617;54.046;10.676;2023-04-01T08:36:18;2.63;;;1.27;;
11125;SDS011;5617;54.046;10.676;2023-04-01T08:38:31;3.07;;;1.37;;
11125;SDS011;5617;54.046;10.676;2023-04-01T08:40:53;0.83;;;0.83;;
11125;SDS011;5617;54.046;10.676;2023-04-01T08:43:09;4.30;;;1.40;;
11125;SDS011;5617;54.046;10.676;2023-04-01T08:45:26;3.03;;;1.23;;
11125;SDS011;5617;54.046;10.676;2023-04-01T08:48:00;2.97;;;1.50;;
11125;SDS011;5617;54.046;10.676;2023-04-01T08:50:44;2.50;;;1.50;;
11125;SDS011;5617;54.046;10.676;2023-04-01T08:53:11;3.60;;;1.50;;
11125;SDS011;5617;54.046;10.676;2023-04-01T08:55:31;2.77;;;1.70;;
11125;SDS011;5617;54.046;10.676;2023-04-01T09:00:38;2.70;;;1.60;;
11125;SDS011;5617;54.046;10.676;2023-04-01T09:02:56;3.27;;;1.47;;
11125;SDS011;5617;54.046;10.676;2023-04-01T09:05:26;4.03;;;1.70;;
11125;SDS011;5617;54.046;10.676;2023-04-01T09:07:45;3.17;;;1.50;;
11125;SDS011;5617;54.046;10.676;2023-04-01T09:10:06;3.23;;;1.60;;
11125;SDS011;5617;54.046;10.676;2023-04-01T09:12:35;3.63;;;1.67;;
11125;SDS011;5617;54.046;10.676;2023-04-01T09:14:59;3.13;;;1.60;;
11125;SDS011;5617;54.046;10.676;2023-04-01T09:22:56;2.80;;;1.97;;
11125;SDS011;5617;54.046;10.676;2023-04-01T09:25:23;4.50;;;1.80;;
11125;SDS011;5617;54.046;10.676;2023-04-01T09:27:41;3.57;;;2.00;;
11125;SDS011;5617;54.046;10.676;2023-04-01T09:32:40;4.67;;;2.30;;
11125;SDS011;5617;54.046;10.676;2023-04-01T09:35:01;4.07;;;2.27;;
11125;SDS011;5617;54.046;10.676;2023-04-01T09:37:21;4.13;;;2.90;;
11125;SDS011;5617;54.046;10.676;2023-04-01T09:39:42;4.13;;;2.23;;
11125;SDS011;5617;54.046;10.676;2023-04-01T09:42:02;3.67;;;2.33;;
11125;SDS011;5617;54.046;10.676;2023-04-01T09:44:21;4.47;;;2.57;;
11125;SDS011;5617;54.046;10.676;2023-04-01T09:46:42;2.77;;;1.87;;
11125;SDS011;5617;54.046;10.676;2023-04-01T09:49:23;4.37;;;2.50;;
11125;SDS011;5617;54.046;10.676;2023-04-01T09:51:46;5.73;;;2.63;;
11125;SDS011;5617;54.046;10.676;2023-04-01T09:54:07;3.30;;;2.37;;
11125;SDS011;5617;54.046;10.676;2023-04-01T09:56:32;5.60;;;2.60;;
11125;SDS011;5617;54.046;10.676;2023-04-01T10:02:33;3.33;;;2.40;;
11125;SDS011;5617;54.046;10.676;2023-04-01T10:05:11;5.83;;;3.07;;
11125;SDS011;5617;54.046;10.676;2023-04-01T10:10:35;4.93;;;2.10;;
11125;SDS011;5617;54.046;10.676;2023-04-01T10:19:05;2.33;;;2.07;;
11125;SDS011;5617;54.046;10.676;2023-04-01T10:21:32;2.20;;;1.97;;
11125;SDS011;5617;54.046;10.676;2023-04-01T10:24:17;2.93;;;1.83;;
11125;SDS011;5617;54.046;10.676;2023-04-01T10:26:58;6.13;;;2.33;;
11125;SDS011;5617;54.046;10.676;2023-04-01T10:32:11;4.17;;;2.70;;
11125;SDS011;5617;54.046;10.676;2023-04-01T10:37:16;6.03;;;3.10;;
11125;SDS011;5617;54.046;10.676;2023-04-01T10:40:00;5.97;;;3.00;;
11125;SDS011;5617;54.046;10.676;2023-04-01T10:42:40;5.17;;;2.63;;
11125;SDS011;5617;54.046;10.676;2023-04-01T10:45:27;4.03;;;2.00;;
11125;SDS011;5617;54.046;10.676;2023-04-01T10:48:09;6.37;;;2.67;;
11125;SDS011;5617;54.046;10.676;2023-04-01T10:50:27;4.33;;;2.00;;
11125;SDS011;5617;54.046;10.676;2023-04-01T10:53:00;5.33;;;2.60;;
11125;SDS011;5617;54.046;10.676;2023-04-01T10:55:36;3.83;;;2.03;;
11125;SDS011;5617;54.046;10.676;2023-04-01T10:58:03;7.27;;;2.67;;
11125;SDS011;5617;54.046;10.676;2023-04-01T11:00:32;3.20;;;2.10;;
11125;SDS011;5617;54.046;10.676;2023-04-01T11:03:19;3.63;;;2.47;;
11125;SDS011;5617;54.046;10.676;2023-04-01T11:05:51;5.23;;;2.93;;
11125;SDS011;5617;54.046;10.676;2023-04-01T11:14:02;3.97;;;2.40;;
11125;SDS011;5617;54.046;10.676;2023-04-01T11:16:40;4.20;;;2.70;;
11125;SDS011;5617;54.046;10.676;2023-04-01T11:19:17;3.53;;;2.43;;
11125;SDS011;5617;54.046;10.676;2023-04-01T11:22:10;3.33;;;2.33;;
11125;SDS011;5617;54.046;10.676;2023-04-01T11:24:35;5.13;;;3.00;;
11125;SDS011;5617;54.046;10.676;2023-04-01T11:26:57;5.90;;;2.67;;
11125;SDS011;5617;54.046;10.676;2023-04-01T11:29:23;4.23;;;3.00;;
11125;SDS011;5617;54.046;10.676;2023-04-01T11:31:54;5.50;;;2.60;;
11125;SDS011;5617;54.046;10.676;2023-04-01T11:34:13;3.50;;;2.20;;
11125;SDS011;5617;54.046;10.676;2023-04-01T11:36:37;5.00;;;2.77;;
11125;SDS011;5617;54.046;10.676;2023-04-01T11:39:00;5.77;;;2.53;;
11125;SDS011;5617;54.046;10.676;2023-04-01T11:41:19;3.23;;;2.07;;
11125;SDS011;5617;54.046;10.676;2023-04-01T11:43:37;3.50;;;2.60;;
11125;SDS011;5617;54.046;10.676;2023-04-01T11:45:50;5.10;;;2.87;;
11125;SDS011;5617;54.046;10.676;2023-04-01T11:48:13;5.03;;;2.00;;
11125;SDS011;5617;54.046;10.676;2023-04-01T11:50:32;4.47;;;2.50;;
11125;SDS011;5617;54.046;10.676;2023-04-01T11:52:59;4.93;;;2.93;;
11125;SDS011;5617;54.046;10.676;2023-04-01T11:55:18;4.13;;;2.30;;
11125;SDS011;5617;54.046;10.676;2023-04-01T11:57:38;5.93;;;2.40;;
11125;SDS011;5617;54.046;10.676;2023-04-01T11:59:58;4.70;;;2.97;;
11125;SDS011;5617;54.046;10.676;2023-04-01T12:02:25;3.47;;;2.13;;
11125;SDS011;5617;54.046;10.676;2023-04-01T12:04:47;5.20;;;3.10;;
11125;SDS011;5617;54.046;10.676;2023-04-01T12:07:19;5.70;;;2.70;;
11125;SDS011;5617;54.046;10.676;2023-04-01T12:09:34;6.20;;;2.70;;
11125;SDS011;5617;54.046;10.676;2023-04-01T12:11:54;5.33;;;2.70;;
11125;SDS011;5617;54.046;10.676;2023-04-01T12:14:14;6.30;;;3.70;;
11125;SDS011;5617;54.046;10.676;2023-04-01T12:16:36;5.60;;;3.57;;
11125;SDS011;5617;54.046;10.676;2023-04-01T12:18:51;5.93;;;2.60;;
11125;SDS011;5617;54.046;10.676;2023-04-01T12:21:07;3.80;;;2.40;;
11125;SDS011;5617;54.046;10.676;2023-04-01T12:28:47;4.83;;;2.37;;
11125;SDS011;5617;54.046;10.676;2023-04-01T12:31:10;4.47;;;3.03;;
11125;SDS011;5617;54.046;10.676;2023-04-01T12:33:34;5.60;;;2.83;;
11125;SDS011;5617;54.046;10.676;2023-04-01T12:35:55;6.20;;;3.40;;
11125;SDS011;5617;54.046;10.676;2023-04-01T12:38:15;4.07;;;2.53;;
11125;SDS011;5617;54.046;10.676;2023-04-01T12:40:45;4.27;;;2.37;;
11125;SDS011;5617;54.046;10.676;2023-04-01T12:43:01;4.57;;;2.93;;
11125;SDS011;5617;54.046;10.676;2023-04-01T12:45:32;6.30;;;3.13;;
11125;SDS011;5617;54.046;10.676;2023-04-01T12:47:48;4.30;;;2.20;;
11125;SDS011;5617;54.046;10.676;2023-04-01T12:50:14;4.33;;;2.70;;
11125;SDS011;5617;54.046;10.676;2023-04-01T12:52:31;7.60;;;3.20;;
11125;SDS011;5617;54.046;10.676;2023-04-01T12:54:58;3.73;;;2.30;;
11125;SDS011;5617;54.046;10.676;2023-04-01T12:57:30;5.40;;;2.40;;
11125;SDS011;5617;54.046;10.676;2023-04-01T12:59:56;3.07;;;2.00;;
11125;SDS011;5617;54.046;10.676;2023-04-01T13:02:21;5.70;;;3.13;;
11125;SDS011;5617;54.046;10.676;2023-04-01T13:04:44;4.53;;;3.27;;
11125;SDS011;5617;54.046;10.676;2023-04-01T13:07:14;4.43;;;3.10;;
11125;SDS011;5617;54.046;10.676;2023-04-01T13:09:45;5.87;;;2.47;;
11125;SDS011;5617;54.046;10.676;2023-04-01T13:12:10;6.97;;;3.60;;
11125;SDS011;5617;54.046;10.676;2023-04-01T13:14:54;6.13;;;4.13;;
11125;SDS011;5617;54.046;10.676;2023-04-01T13:17:25;6.23;;;3.10;;
11125;SDS011;5617;54.046;10.676;2023-04-01T13:19:42;4.90;;;3.27;;
11125;SDS011;5617;54.046;10.676;2023-04-01T13:21:56;5.97;;;3.00;;
11125;SDS011;5617;54.046;10.676;2023-04-01T13:24:22;6.93;;;3.37;;
11125;SDS011;5617;54.046;10.676;2023-04-01T13:26:39;7.63;;;2.80;;
11125;SDS011;5617;54.046;10.676;2023-04-01T13:28:57;7.63;;;3.40;;
11125;SDS011;5617;54.046;10.676;2023-04-01T13:31:14;6.80;;;3.17;;
11125;SDS011;5617;54.046;10.676;2023-04-01T13:33:35;8.17;;;3.67;;
11125;SDS011;5617;54.046;10.676;2023-04-01T13:35:51;6.97;;;3.70;;
11125;SDS011;5617;54.046;10.676;2023-04-01T13:38:16;7.93;;;3.67;;
11125;SDS011;5617;54.046;10.676;2023-04-01T13:40:49;5.13;;;3.10;;
11125;SDS011;5617;54.046;10.676;2023-04-01T13:43:02;6.33;;;2.87;;
11125;SDS011;5617;54.046;10.676;2023-04-01T13:45:17;6.27;;;3.00;;
11125;SDS011;5617;54.046;10.676;2023-04-01T13:50:18;7.57;;;3.60;;
11125;SDS011;5617;54.046;10.676;2023-04-01T13:52:42;8.33;;;3.00;;
11125;SDS011;5617;54.046;10.676;2023-04-01T13:55:26;4.80;;;2.60;;
11125;SDS011;5617;54.046;10.676;2023-04-01T13:57:44;4.47;;;2.20;;
11125;SDS011;5617;54.046;10.676;2023-04-01T14:02:47;6.90;;;2.67;;
11125;SDS011;5617;54.046;10.676;2023-04-01T14:05:08;4.93;;;2.70;;
11125;SDS011;5617;54.046;10.676;2023-04-01T14:07:45;5.23;;;2.43;;
11125;SDS011;5617;54.046;10.676;2023-04-01T14:10:07;5.03;;;2.40;;
11125;SDS011;5617;54.046;10.676;2023-04-01T14:12:31;3.87;;;2.10;;
11125;SDS011;5617;54.046;10.676;2023-04-01T14:14:47;4.73;;;2.60;;
11125;SDS011;5617;54.046;10.676;2023-04-01T14:17:14;5.10;;;2.37;;
11125;SDS011;5617;54.046;10.676;2023-04-01T14:22:18;4.57;;;2.77;;
11125;SDS011;5617;54.046;10.676;2023-04-01T14:24:40;4.40;;;2.27;;
11125;SDS011;5617;54.046;10.676;2023-04-01T14:29:45;4.27;;;2.00;;
11125;SDS011;5617;54.046;10.676;2023-04-01T14:32:02;4.97;;;2.27;;
11125;SDS011;5617;54.046;10.676;2023-04-01T14:34:25;6.27;;;2.90;;